createdAt,value
2023-01-06T00:04:28.993Z,0.40
2023-01-06T00:09:49.050Z,0.80
2023-01-06T00:15:16.072Z,1.50
2023-01-06T00:20:37.979Z,2.60
2023-01-06T00:26:03.984Z,1.27
2023-01-06T00:31:25.145Z,2.87
2023-01-06T00:36:54.000Z,0.27
2023-01-06T00:42:14.025Z,0.60
2023-01-06T00:47:39.937Z,0.85
2023-01-06T00:53:01.960Z,1.70
2023-01-06T00:58:34.960Z,1.47
2023-01-06T01:04:01.021Z,0.83
2023-01-06T01:09:23.983Z,0.97
2023-01-06T01:14:53.989Z,1.30
2023-01-06T01:20:13.988Z,1.13
2023-01-06T01:25:42.894Z,0.75
2023-01-06T01:31:03.023Z,1.23
2023-01-06T01:36:29.949Z,0.57
2023-01-06T01:41:51.935Z,0.73
2023-01-06T01:47:18.000Z,0.50
2023-01-06T01:52:37.945Z,0.70
2023-01-06T01:58:09.989Z,0.20
2023-01-06T02:03:30.985Z,1.40
2023-01-06T02:09:02.925Z,0.63
2023-01-06T02:14:29.944Z,0.43
2023-01-06T02:20:31.906Z,2.50
2023-01-06T02:26:04.948Z,1.00
2023-01-06T02:32:02.924Z,0.93
2023-01-06T02:37:30.929Z,1.53
2023-01-06T02:43:04.951Z,1.33
2023-01-06T02:48:29.986Z,1.17
2023-01-06T02:54:07.894Z,1.70
2023-01-06T02:59:30.956Z,2.40
2023-01-06T03:05:07.903Z,1.03
2023-01-06T03:10:34.851Z,1.03
2023-01-06T03:15:54.963Z,1.30
2023-01-06T03:21:26.888Z,0.68
2023-01-06T03:26:46.866Z,1.43
2023-01-06T03:32:15.842Z,0.75
2023-01-06T03:37:43.890Z,1.87
2023-01-06T03:43:23.886Z,1.33
2023-01-06T03:48:50.918Z,0.47
2023-01-06T03:54:23.921Z,0.90
2023-01-06T04:05:21.903Z,1.33
2023-01-06T04:10:50.846Z,1.23
2023-01-06T04:16:10.909Z,1.80
2023-01-06T04:21:36.875Z,1.23
2023-01-06T04:26:58.854Z,1.90
2023-01-06T04:32:24.863Z,0.77
2023-01-06T04:37:44.861Z,1.27
2023-01-06T04:43:20.806Z,0.90
2023-01-06T04:48:40.854Z,1.57
2023-01-06T04:54:06.809Z,0.90
2023-01-06T04:59:28.811Z,1.00
2023-01-06T05:04:54.829Z,1.53
2023-01-06T05:10:14.815Z,1.80
2023-01-06T05:15:43.801Z,0.93
2023-01-06T05:21:07.817Z,2.27
2023-01-06T05:26:35.847Z,2.40
2023-01-06T05:32:00.324Z,2.53
2023-01-06T05:37:26.850Z,2.20
2023-01-06T05:42:46.838Z,3.07
2023-01-06T05:48:15.826Z,1.37
2023-01-06T05:53:35.867Z,2.80
2023-01-06T05:59:03.858Z,2.80
2023-01-06T06:04:27.864Z,2.10
2023-01-06T06:10:00.853Z,3.17
2023-01-06T06:15:26.801Z,3.43
2023-01-06T06:20:48.786Z,2.73
2023-01-06T06:26:14.808Z,4.10
2023-01-06T06:31:36.853Z,2.87
2023-01-06T06:37:05.972Z,2.73
2023-01-06T06:42:25.868Z,4.03
2023-01-06T06:47:51.810Z,3.87
2023-01-06T06:53:15.818Z,4.20
2023-01-06T06:58:41.801Z,3.87
2023-01-06T07:04:01.771Z,4.43
2023-01-06T07:09:37.762Z,2.57
2023-01-06T07:15:12.832Z,2.97
2023-01-06T07:20:38.828Z,3.60
2023-01-06T07:26:00.831Z,3.43
2023-01-06T07:31:26.969Z,3.60
2023-01-06T07:36:46.734Z,3.10
2023-01-06T07:42:15.809Z,3.37
2023-01-06T07:47:35.851Z,2.13
2023-01-06T07:53:01.752Z,1.87
2023-01-06T07:58:25.777Z,3.43
2023-01-06T08:03:51.721Z,2.97
2023-01-06T08:09:11.733Z,2.50
2023-01-06T08:14:40.793Z,1.20
2023-01-06T08:20:00.781Z,1.13
2023-01-06T08:25:26.773Z,2.20
2023-01-06T08:30:48.771Z,1.90
2023-01-06T08:36:16.793Z,0.50
2023-01-06T08:41:36.726Z,2.13
2023-01-06T08:47:05.755Z,2.57
2023-01-06T08:52:25.798Z,0.87
2023-01-06T08:57:54.577Z,0.70
2023-01-06T09:03:17.779Z,0.77
2023-01-06T09:08:44.802Z,0.90
2023-01-06T09:14:04.707Z,1.80
2023-01-06T09:25:15.794Z,1.63
2023-01-06T09:30:41.739Z,1.13
2023-01-06T09:36:03.762Z,0.90
2023-01-06T09:41:54.740Z,1.13
2023-01-06T09:47:14.721Z,1.10
2023-01-06T09:52:47.720Z,1.80
2023-01-06T09:58:10.737Z,0.90
2023-01-06T10:03:37.771Z,0.47
2023-01-06T10:09:09.708Z,0.80
2023-01-06T10:14:45.661Z,0.40
2023-01-06T10:20:14.673Z,1.53
2023-01-06T10:25:52.705Z,1.10
2023-01-06T10:31:22.755Z,1.40
2023-01-06T10:36:48.714Z,1.20
2023-01-06T10:42:36.732Z,0.93
2023-01-06T10:47:58.740Z,0.77
2023-01-06T11:30:15.710Z,1.00
2023-01-06T11:35:43.686Z,1.37
2023-01-06T11:41:04.750Z,1.63
2023-01-06T11:46:35.679Z,1.03
2023-01-06T11:52:05.661Z,1.90
2023-01-06T11:57:39.720Z,1.00
2023-01-06T12:03:10.769Z,1.53
2023-01-06T12:08:40.681Z,1.00
2023-01-06T12:14:28.542Z,0.93
2023-01-06T12:19:55.855Z,0.88
2023-01-06T12:25:18.595Z,0.97
2023-01-06T12:30:53.748Z,0.73
2023-01-06T12:36:33.589Z,0.70
2023-01-06T12:42:02.899Z,0.87
2023-01-06T12:47:41.107Z,3.57
2023-01-06T12:53:20.482Z,0.97
2023-01-06T12:59:02.815Z,1.60
2023-01-06T13:04:56.727Z,0.47
2023-01-06T13:10:42.683Z,0.67
2023-01-06T13:16:09.625Z,1.97
2023-01-06T13:21:44.053Z,2.77
2023-01-06T13:27:30.591Z,1.00
2023-01-06T13:33:20.649Z,0.70
2023-01-06T13:39:05.646Z,1.73
2023-01-06T13:44:32.602Z,1.23
2023-01-06T13:49:58.708Z,0.90
2023-01-06T13:55:24.679Z,1.30
2023-01-06T14:01:15.691Z,1.93
2023-01-06T14:07:02.798Z,1.20
2023-01-06T14:12:37.435Z,2.03
2023-01-06T14:18:00.661Z,1.17
2023-01-06T14:23:35.276Z,2.33
2023-01-06T14:28:55.568Z,2.20
2023-01-06T14:34:30.315Z,2.07
2023-01-06T14:39:55.220Z,1.37
2023-01-06T14:45:32.455Z,1.63
2023-01-06T14:50:58.927Z,0.93
2023-01-06T14:56:29.607Z,1.03
2023-01-06T15:01:51.688Z,1.43
2023-01-06T15:07:30.632Z,1.20
2023-01-06T15:12:56.668Z,1.63
2023-01-06T15:18:25.763Z,3.47
2023-01-06T15:23:48.945Z,1.70
2023-01-06T15:29:23.311Z,1.47
2023-01-06T15:34:50.739Z,0.97
2023-01-06T15:40:22.648Z,1.37
2023-01-06T15:45:45.547Z,1.58
2023-01-06T15:51:11.573Z,1.97
2023-01-06T15:56:45.505Z,1.33
2023-01-06T16:02:13.629Z,0.83
2023-01-06T16:07:51.550Z,1.10
2023-01-06T16:13:38.485Z,1.27
2023-01-06T16:18:58.568Z,1.53
2023-01-06T16:24:30.544Z,1.33
2023-01-06T16:29:54.579Z,1.33
2023-01-06T16:35:29.584Z,0.80
2023-01-06T16:41:02.519Z,1.00
2023-01-06T16:46:34.528Z,1.27
2023-01-06T16:51:54.644Z,0.47
2023-01-06T16:57:20.545Z,0.97
2023-01-06T17:02:42.627Z,0.87
2023-01-06T17:08:11.559Z,0.53
2023-01-06T17:13:46.529Z,0.40
2023-01-06T17:19:26.728Z,1.00
2023-01-06T17:24:48.869Z,1.10
2023-01-06T17:30:27.587Z,0.73
2023-01-06T17:35:58.770Z,1.07
2023-01-06T17:41:38.209Z,0.87
2023-01-06T17:47:10.432Z,0.90
2023-01-06T17:58:14.793Z,0.90
2023-01-06T18:03:36.461Z,1.27
2023-01-06T18:09:12.539Z,0.80
2023-01-06T18:14:39.488Z,0.90
2023-01-06T18:20:06.438Z,1.30
2023-01-06T18:25:34.479Z,0.90
2023-01-06T18:31:04.543Z,0.80
2023-01-06T18:36:25.443Z,0.50
2023-01-06T18:42:00.515Z,0.90
2023-01-06T18:47:34.521Z,0.98
2023-01-06T18:53:01.458Z,0.50
2023-01-06T18:58:32.451Z,0.87
2023-01-06T19:04:08.486Z,0.63
2023-01-06T19:09:49.496Z,0.77
2023-01-06T19:15:28.453Z,0.53
2023-01-06T19:20:48.467Z,1.37
2023-01-06T19:26:16.467Z,0.50
2023-01-06T19:31:40.474Z,0.70
2023-01-06T19:37:07.458Z,0.50
2023-01-06T19:42:36.445Z,0.50
2023-01-06T19:48:12.477Z,0.88
2023-01-06T19:53:53.435Z,0.50
2023-01-06T19:59:18.421Z,0.63
2023-01-06T20:04:48.390Z,1.10
2023-01-06T20:10:08.472Z,0.80
2023-01-06T20:15:35.527Z,0.97
2023-01-06T20:20:58.436Z,0.50
2023-01-06T20:26:24.485Z,1.37
2023-01-06T20:31:44.403Z,0.80
2023-01-06T20:37:13.452Z,0.60
2023-01-06T20:42:33.433Z,1.13
2023-01-06T20:48:06.488Z,0.73
2023-01-06T20:53:35.674Z,0.40
2023-01-06T20:58:56.810Z,0.40
2023-01-06T21:04:26.412Z,0.57
2023-01-06T21:09:51.147Z,0.53
2023-01-06T21:15:20.903Z,0.60
2023-01-06T21:20:47.384Z,0.93
2023-01-06T21:26:22.333Z,0.33
2023-01-06T21:31:49.348Z,0.37
2023-01-06T21:37:15.391Z,0.60
2023-01-06T21:42:49.396Z,0.43
2023-01-06T21:48:23.375Z,0.53
2023-01-06T21:53:50.417Z,0.80
2023-01-06T21:59:12.322Z,0.53
2023-01-06T22:04:38.414Z,0.80
2023-01-06T22:09:59.452Z,0.50
2023-01-06T22:15:28.473Z,0.53
2023-01-06T22:20:49.377Z,0.53
2023-01-06T22:26:16.458Z,1.33
2023-01-06T22:31:39.385Z,0.50
2023-01-06T22:37:05.365Z,0.47
2023-01-06T22:42:25.340Z,0.60
2023-01-06T22:48:01.403Z,0.30
2023-01-06T22:53:27.412Z,0.33
2023-01-06T22:58:47.376Z,0.57
2023-01-06T23:04:16.377Z,0.73
2023-01-06T23:09:36.378Z,1.00
2023-01-06T23:15:02.357Z,1.03
2023-01-06T23:20:27.379Z,1.33
2023-01-06T23:25:54.394Z,0.60
2023-01-06T23:31:21.430Z,0.80
2023-01-06T23:36:50.387Z,1.53
2023-01-06T23:42:12.390Z,0.67
2023-01-06T23:47:38.297Z,0.50
2023-01-06T23:53:06.354Z,0.70
2023-01-06T23:58:32.315Z,1.10
